sensor_id;sensor_type;location;lat;lon;timestamp;temperature;humidity
64501;DHT22;50874;24.150;-110.320;2022-09-30T00:00:21;35.60;92.80
64501;DHT22;50874;24.150;-110.320;2022-09-30T00:02:48;35.60;92.80
64501;DHT22;50874;24.150;-110.320;2022-09-30T00:05:14;35.50;92.80
64501;DHT22;50874;24.150;-110.320;2022-09-30T00:07:41;35.50;93.00
64501;DHT22;50874;24.150;-110.320;2022-09-30T00:10:07;35.20;93.30
64501;DHT22;50874;24.150;-110.320;2022-09-30T00:12:34;35.30;93.10
64501;DHT22;50874;24.150;-110.320;2022-09-30T00:15:01;35.40;92.70
64501;DHT22;50874;24.150;-110.320;2022-09-30T00:17:27;35.40;92.70
64501;DHT22;50874;24.150;-110.320;2022-09-30T00:19:54;35.20;93.30
64501;DHT22;50874;24.150;-110.320;2022-09-30T00:22:20;35.20;93.50
64501;DHT22;50874;24.150;-110.320;2022-09-30T00:24:46;35.30;93.50
64501;DHT22;50874;24.150;-110.320;2022-09-30T00:27:13;35.20;93.60
64501;DHT22;50874;24.150;-110.320;2022-09-30T00:29:43;35.10;93.90
64501;DHT22;50874;24.150;-110.320;2022-09-30T00:32:10;35.10;93.90
64501;DHT22;50874;24.150;-110.320;2022-09-30T00:34:37;35.10;93.60
64501;DHT22;50874;24.150;-110.320;2022-09-30T00:37:03;35.10;93.30
64501;DHT22;50874;24.150;-110.320;2022-09-30T00:39:30;34.90;93.50
64501;DHT22;50874;24.150;-110.320;2022-09-30T00:41:59;34.50;93.80
64501;DHT22;50874;24.150;-110.320;2022-09-30T00:44:46;34.60;94.00
64501;DHT22;50874;24.150;-110.320;2022-09-30T00:47:36;34.50;94.00
64501;DHT22;50874;24.150;-110.320;2022-09-30T00:53:21;34.30;94.30
64501;DHT22;50874;24.150;-110.320;2022-09-30T00:55:54;34.20;94.50
64501;DHT22;50874;24.150;-110.320;2022-09-30T01:00:59;34.10;94.70
64501;DHT22;50874;24.150;-110.320;2022-09-30T01:03:33;34.10;94.80
64501;DHT22;50874;24.150;-110.320;2022-09-30T01:06:01;33.80;94.50
64501;DHT22;50874;24.150;-110.320;2022-09-30T01:08:29;33.70;94.70
64501;DHT22;50874;24.150;-110.320;2022-09-30T01:10:56;33.50;95.10
64501;DHT22;50874;24.150;-110.320;2022-09-30T01:13:24;33.40;95.10
64501;DHT22;50874;24.150;-110.320;2022-09-30T01:24:19;33.10;94.60
64501;DHT22;50874;24.150;-110.320;2022-09-30T01:30:05;33.10;95.00
64501;DHT22;50874;24.150;-110.320;2022-09-30T01:33:26;33.10;95.20
64501;DHT22;50874;24.150;-110.320;2022-09-30T01:35:44;33.00;95.40
64501;DHT22;50874;24.150;-110.320;2022-09-30T01:46:41;32.80;96.00
64501;DHT22;50874;24.150;-110.320;2022-09-30T01:49:17;32.70;96.20
64501;DHT22;50874;24.150;-110.320;2022-09-30T01:52:00;32.70;96.20
64501;DHT22;50874;24.150;-110.320;2022-09-30T01:54:31;32.70;96.30
64501;DHT22;50874;24.150;-110.320;2022-09-30T01:59:56;32.70;95.70
64501;DHT22;50874;24.150;-110.320;2022-09-30T02:02:30;32.60;95.90
64501;DHT22;50874;24.150;-110.320;2022-09-30T02:05:51;32.50;95.40
64501;DHT22;50874;24.150;-110.320;2022-09-30T02:11:25;32.50;96.10
64501;DHT22;50874;24.150;-110.320;2022-09-30T02:16:38;32.40;95.90
64501;DHT22;50874;24.150;-110.320;2022-09-30T02:19:29;32.30;97.40
64501;DHT22;50874;24.150;-110.320;2022-09-30T02:22:05;32.30;97.30
64501;DHT22;50874;24.150;-110.320;2022-09-30T02:24:35;32.10;97.70
64501;DHT22;50874;24.150;-110.320;2022-09-30T02:27:04;31.90;97.90
64501;DHT22;50874;24.150;-110.320;2022-09-30T02:29:40;31.80;98.30
64501;DHT22;50874;24.150;-110.320;2022-09-30T02:32:20;31.50;98.60
64501;DHT22;50874;24.150;-110.320;2022-09-30T02:34:51;31.30;99.10
64501;DHT22;50874;24.150;-110.320;2022-09-30T02:37:28;31.30;99.30
64501;DHT22;50874;24.150;-110.320;2022-09-30T02:43:04;31.30;99.10
64501;DHT22;50874;24.150;-110.320;2022-09-30T02:45:46;31.40;99.20
64501;DHT22;50874;24.150;-110.320;2022-09-30T02:54:00;31.20;99.90
64501;DHT22;50874;24.150;-110.320;2022-09-30T02:59:11;31.20;99.90
64501;DHT22;50874;24.150;-110.320;2022-09-30T03:01:39;31.10;99.90
64501;DHT22;50874;24.150;-110.320;2022-09-30T03:04:12;31.10;99.90
64501;DHT22;50874;24.150;-110.320;2022-09-30T03:06:40;31.10;99.90
64501;DHT22;50874;24.150;-110.320;2022-09-30T03:09:07;31.00;99.90
64501;DHT22;50874;24.150;-110.320;2022-09-30T03:11:34;31.00;99.90
64501;DHT22;50874;24.150;-110.320;2022-09-30T03:14:09;30.90;99.90
64501;DHT22;50874;24.150;-110.320;2022-09-30T03:19:34;30.80;99.90
64501;DHT22;50874;24.150;-110.320;2022-09-30T03:22:36;30.70;99.90
64501;DHT22;50874;24.150;-110.320;2022-09-30T03:25:19;30.70;99.90
64501;DHT22;50874;24.150;-110.320;2022-09-30T03:30:20;30.60;99.90
64501;DHT22;50874;24.150;-110.320;2022-09-30T03:48:48;30.40;99.90
64501;DHT22;50874;24.150;-110.320;2022-09-30T03:51:16;30.30;99.90
64501;DHT22;50874;24.150;-110.320;2022-09-30T03:53:43;30.30;99.90
64501;DHT22;50874;24.150;-110.320;2022-09-30T03:56:12;30.30;99.90
64501;DHT22;50874;24.150;-110.320;2022-09-30T03:58:42;30.20;99.90
64501;DHT22;50874;24.150;-110.320;2022-09-30T04:01:16;30.30;99.90
64501;DHT22;50874;24.150;-110.320;2022-09-30T04:03:50;30.20;99.90
64501;DHT22;50874;24.150;-110.320;2022-09-30T04:06:19;30.10;99.90
64501;DHT22;50874;24.150;-110.320;2022-09-30T04:08:45;30.10;99.90
64501;DHT22;50874;24.150;-110.320;2022-09-30T04:11:12;30.10;99.90
64501;DHT22;50874;24.150;-110.320;2022-09-30T04:13:39;30.10;99.90
64501;DHT22;50874;24.150;-110.320;2022-09-30T04:16:06;30.10;99.90
64501;DHT22;50874;24.150;-110.320;2022-09-30T04:18:36;30.10;99.90
64501;DHT22;50874;24.150;-110.320;2022-09-30T04:21:08;30.10;99.90
64501;DHT22;50874;24.150;-110.320;2022-09-30T04:23:36;30.10;99.90
64501;DHT22;50874;24.150;-110.320;2022-09-30T04:26:03;30.00;99.90
64501;DHT22;50874;24.150;-110.320;2022-09-30T04:28:31;30.00;99.90
64501;DHT22;50874;24.150;-110.320;2022-09-30T04:31:04;30.00;99.90
64501;DHT22;50874;24.150;-110.320;2022-09-30T04:33:31;29.90;99.90
64501;DHT22;50874;24.150;-110.320;2022-09-30T04:35:59;29.80;99.90
64501;DHT22;50874;24.150;-110.320;2022-09-30T04:38:26;29.80;99.90
64501;DHT22;50874;24.150;-110.320;2022-09-30T04:40:53;29.70;99.90
64501;DHT22;50874;24.150;-110.320;2022-09-30T04:43:21;29.70;99.90
64501;DHT22;50874;24.150;-110.320;2022-09-30T04:45:50;29.60;99.90
64501;DHT22;50874;24.150;-110.320;2022-09-30T04:48:17;29.70;99.90
64501;DHT22;50874;24.150;-110.320;2022-09-30T04:50:44;29.60;99.90
64501;DHT22;50874;24.150;-110.320;2022-09-30T04:53:13;29.60;99.90
64501;DHT22;50874;24.150;-110.320;2022-09-30T04:55:41;29.60;99.90
64501;DHT22;50874;24.150;-110.320;2022-09-30T04:58:07;29.60;99.90
64501;DHT22;50874;24.150;-110.320;2022-09-30T05:00:34;29.50;99.90
64501;DHT22;50874;24.150;-110.320;2022-09-30T05:03:00;29.60;99.90
64501;DHT22;50874;24.150;-110.320;2022-09-30T05:05:28;29.60;99.90
64501;DHT22;50874;24.150;-110.320;2022-09-30T05:08:02;29.50;99.90
64501;DHT22;50874;24.150;-110.320;2022-09-30T05:10:29;29.50;99.90
64501;DHT22;50874;24.150;-110.320;2022-09-30T05:12:56;29.40;99.90
64501;DHT22;50874;24.150;-110.320;2022-09-30T05:15:25;29.40;99.90
64501;DHT22;50874;24.150;-110.320;2022-09-30T05:17:52;29.30;99.90
64501;DHT22;50874;24.150;-110.320;2022-09-30T05:20:19;29.30;99.90
64501;DHT22;50874;24.150;-110.320;2022-09-30T05:22:46;29.20;99.90
64501;DHT22;50874;24.150;-110.320;2022-09-30T05:25:13;29.10;99.90
64501;DHT22;50874;24.150;-110.320;2022-09-30T05:27:39;29.10;99.90
64501;DHT22;50874;24.150;-110.320;2022-09-30T05:30:06;29.10;99.90
64501;DHT22;50874;24.150;-110.320;2022-09-30T05:32:33;29.00;99.90
64501;DHT22;50874;24.150;-110.320;2022-09-30T05:34:59;29.00;99.90
64501;DHT22;50874;24.150;-110.320;2022-09-30T05:37:28;29.00;99.90
64501;DHT22;50874;24.150;-110.320;2022-09-30T05:39:54;29.00;99.90
64501;DHT22;50874;24.150;-110.320;2022-09-30T05:42:21;29.00;99.90
64501;DHT22;50874;24.150;-110.320;2022-09-30T05:44:48;28.90;99.90
64501;DHT22;50874;24.150;-110.320;2022-09-30T05:47:14;28.90;99.90
64501;DHT22;50874;24.150;-110.320;2022-09-30T05:49:41;28.90;99.90
64501;DHT22;50874;24.150;-110.320;2022-09-30T05:52:07;28.90;99.90
64501;DHT22;50874;24.150;-110.320;2022-09-30T05:54:34;28.90;99.90
64501;DHT22;50874;24.150;-110.320;2022-09-30T05:57:01;28.90;99.90
64501;DHT22;50874;24.150;-110.320;2022-09-30T05:59:27;28.90;99.90
64501;DHT22;50874;24.150;-110.320;2022-09-30T06:01:53;28.90;99.90
64501;DHT22;50874;24.150;-110.320;2022-09-30T06:04:20;28.80;99.90
64501;DHT22;50874;24.150;-110.320;2022-09-30T06:06:47;28.80;99.90
64501;DHT22;50874;24.150;-110.320;2022-09-30T06:09:14;28.80;99.90
64501;DHT22;50874;24.150;-110.320;2022-09-30T06:11:41;28.80;99.90
64501;DHT22;50874;24.150;-110.320;2022-09-30T06:14:07;28.80;99.90
64501;DHT22;50874;24.150;-110.320;2022-09-30T06:16:34;28.70;99.90
64501;DHT22;50874;24.150;-110.320;2022-09-30T06:19:01;28.70;99.90
64501;DHT22;50874;24.150;-110.320;2022-09-30T06:21:27;28.70;99.90
64501;DHT22;50874;24.150;-110.320;2022-09-30T06:23:54;28.60;99.90
64501;DHT22;50874;24.150;-110.320;2022-09-30T06:26:20;28.60;99.90
64501;DHT22;50874;24.150;-110.320;2022-09-30T06:28:46;28.60;99.90
64501;DHT22;50874;24.150;-110.320;2022-09-30T06:31:13;28.50;99.90
64501;DHT22;50874;24.150;-110.320;2022-09-30T06:33:39;28.30;99.90
64501;DHT22;50874;24.150;-110.320;2022-09-30T06:36:07;28.30;99.90
64501;DHT22;50874;24.150;-110.320;2022-09-30T06:38:35;28.20;99.90
64501;DHT22;50874;24.150;-110.320;2022-09-30T06:41:05;28.20;99.90
64501;DHT22;50874;24.150;-110.320;2022-09-30T06:43:31;28.20;99.90
64501;DHT22;50874;24.150;-110.320;2022-09-30T06:45:58;28.00;99.90
64501;DHT22;50874;24.150;-110.320;2022-09-30T06:48:26;28.00;99.90
64501;DHT22;50874;24.150;-110.320;2022-09-30T06:50:58;28.00;99.90
64501;DHT22;50874;24.150;-110.320;2022-09-30T06:53:25;28.00;99.90
64501;DHT22;50874;24.150;-110.320;2022-09-30T06:55:56;27.90;99.90
64501;DHT22;50874;24.150;-110.320;2022-09-30T06:58:23;27.90;99.90
64501;DHT22;50874;24.150;-110.320;2022-09-30T07:01:00;27.90;99.90
64501;DHT22;50874;24.150;-110.320;2022-09-30T07:03:31;27.80;99.90
64501;DHT22;50874;24.150;-110.320;2022-09-30T07:06:02;27.80;99.90
64501;DHT22;50874;24.150;-110.320;2022-09-30T07:08:30;27.80;99.90
64501;DHT22;50874;24.150;-110.320;2022-09-30T07:10:59;27.80;99.90
64501;DHT22;50874;24.150;-110.320;2022-09-30T07:13:26;27.80;99.90
64501;DHT22;50874;24.150;-110.320;2022-09-30T07:15:53;27.80;99.90
64501;DHT22;50874;24.150;-110.320;2022-09-30T07:18:22;27.90;99.90
64501;DHT22;50874;24.150;-110.320;2022-09-30T07:20:52;28.00;99.90
64501;DHT22;50874;24.150;-110.320;2022-09-30T07:23:20;28.00;99.90
64501;DHT22;50874;24.150;-110.320;2022-09-30T07:26:00;28.00;99.90
64501;DHT22;50874;24.150;-110.320;2022-09-30T07:28:33;27.80;99.90
64501;DHT22;50874;24.150;-110.320;2022-09-30T07:31:07;27.80;99.90
64501;DHT22;50874;24.150;-110.320;2022-09-30T07:33:37;27.70;99.90
64501;DHT22;50874;24.150;-110.320;2022-09-30T07:36:04;27.70;99.90
64501;DHT22;50874;24.150;-110.320;2022-09-30T07:38:35;27.60;99.90
64501;DHT22;50874;24.150;-110.320;2022-09-30T07:41:05;27.60;99.90
64501;DHT22;50874;24.150;-110.320;2022-09-30T07:43:33;27.50;99.90
64501;DHT22;50874;24.150;-110.320;2022-09-30T07:46:41;27.50;99.90
64501;DHT22;50874;24.150;-110.320;2022-09-30T07:49:13;27.40;99.90
64501;DHT22;50874;24.150;-110.320;2022-09-30T07:51:41;27.30;99.90
64501;DHT22;50874;24.150;-110.320;2022-09-30T07:54:14;27.20;99.90
64501;DHT22;50874;24.150;-110.320;2022-09-30T07:56:41;27.20;99.90
64501;DHT22;50874;24.150;-110.320;2022-09-30T07:59:10;27.10;99.90
64501;DHT22;50874;24.150;-110.320;2022-09-30T08:01:37;27.10;99.90
64501;DHT22;50874;24.150;-110.320;2022-09-30T08:04:06;27.10;99.90
64501;DHT22;50874;24.150;-110.320;2022-09-30T08:06:38;27.10;99.90
64501;DHT22;50874;24.150;-110.320;2022-09-30T08:09:04;27.10;99.90
64501;DHT22;50874;24.150;-110.320;2022-09-30T08:11:35;27.10;99.90
64501;DHT22;50874;24.150;-110.320;2022-09-30T08:14:02;27.00;99.90
64501;DHT22;50874;24.150;-110.320;2022-09-30T08:16:28;27.00;99.90
64501;DHT22;50874;24.150;-110.320;2022-09-30T08:18:57;27.00;99.90
64501;DHT22;50874;24.150;-110.320;2022-09-30T08:21:24;27.00;99.90
64501;DHT22;50874;24.150;-110.320;2022-09-30T08:23:50;27.00;99.90
64501;DHT22;50874;24.150;-110.320;2022-09-30T08:26:17;27.10;99.90
64501;DHT22;50874;24.150;-110.320;2022-09-30T08:28:44;27.00;99.90
64501;DHT22;50874;24.150;-110.320;2022-09-30T08:31:15;27.10;99.90
64501;DHT22;50874;24.150;-110.320;2022-09-30T08:33:42;27.10;99.90
64501;DHT22;50874;24.150;-110.320;2022-09-30T08:36:29;27.00;99.90
64501;DHT22;50874;24.150;-110.320;2022-09-30T08:38:56;27.00;99.90
64501;DHT22;50874;24.150;-110.320;2022-09-30T08:47:34;27.10;99.90
64501;DHT22;50874;24.150;-110.320;2022-09-30T08:50:45;27.00;99.90
64501;DHT22;50874;24.150;-110.320;2022-09-30T08:53:22;27.00;99.90
64501;DHT22;50874;24.150;-110.320;2022-09-30T08:55:51;26.90;99.90
64501;DHT22;50874;24.150;-110.320;2022-09-30T08:58:35;26.90;99.90
64501;DHT22;50874;24.150;-110.320;2022-09-30T09:01:43;26.90;99.90
64501;DHT22;50874;24.150;-110.320;2022-09-30T09:04:13;26.90;99.90
64501;DHT22;50874;24.150;-110.320;2022-09-30T09:12:29;26.80;99.90
64501;DHT22;50874;24.150;-110.320;2022-09-30T09:17:39;26.70;99.90
64501;DHT22;50874;24.150;-110.320;2022-09-30T09:20:17;26.70;99.90
64501;DHT22;50874;24.150;-110.320;2022-09-30T09:22:45;26.60;99.90
64501;DHT22;50874;24.150;-110.320;2022-09-30T09:25:17;26.60;99.90
64501;DHT22;50874;24.150;-110.320;2022-09-30T09:30:28;26.60;99.90
64501;DHT22;50874;24.150;-110.320;2022-09-30T09:32:59;26.60;99.90
64501;DHT22;50874;24.150;-110.320;2022-09-30T09:35:38;26.60;99.90
64501;DHT22;50874;24.150;-110.320;2022-09-30T09:46:39;26.70;99.90
64501;DHT22;50874;24.150;-110.320;2022-09-30T09:54:42;26.70;99.90
64501;DHT22;50874;24.150;-110.320;2022-09-30T09:57:12;26.60;99.90
64501;DHT22;50874;24.150;-110.320;2022-09-30T10:00:01;26.60;99.90
64501;DHT22;50874;24.150;-110.320;2022-09-30T10:02:59;26.60;99.90
64501;DHT22;50874;24.150;-110.320;2022-09-30T10:05:26;26.50;99.90
64501;DHT22;50874;24.150;-110.320;2022-09-30T10:08:21;26.40;99.90
64501;DHT22;50874;24.150;-110.320;2022-09-30T10:11:19;26.40;99.90
64501;DHT22;50874;24.150;-110.320;2022-09-30T10:13:46;26.40;99.90
64501;DHT22;50874;24.150;-110.320;2022-09-30T10:16:30;26.30;99.90
64501;DHT22;50874;24.150;-110.320;2022-09-30T10:18:58;26.30;99.90
64501;DHT22;50874;24.150;-110.320;2022-09-30T10:21:26;26.30;99.90
64501;DHT22;50874;24.150;-110.320;2022-09-30T10:23:53;26.30;99.90
64501;DHT22;50874;24.150;-110.320;2022-09-30T10:26:22;26.30;99.90
64501;DHT22;50874;24.150;-110.320;2022-09-30T10:28:52;26.30;99.90
64501;DHT22;50874;24.150;-110.320;2022-09-30T10:31:26;26.10;99.90
64501;DHT22;50874;24.150;-110.320;2022-09-30T10:36:47;26.00;99.90
64501;DHT22;50874;24.150;-110.320;2022-09-30T10:39:35;26.00;99.90
64501;DHT22;50874;24.150;-110.320;2022-09-30T10:44:45;26.00;99.90
64501;DHT22;50874;24.150;-110.320;2022-09-30T10:47:16;26.00;99.90
64501;DHT22;50874;24.150;-110.320;2022-09-30T10:52:32;25.90;99.90
64501;DHT22;50874;24.150;-110.320;2022-09-30T10:55:01;26.00;99.90
64501;DHT22;50874;24.150;-110.320;2022-09-30T10:57:35;26.10;99.90
64501;DHT22;50874;24.150;-110.320;2022-09-30T11:10:47;26.20;99.90
64501;DHT22;50874;24.150;-110.320;2022-09-30T11:18:55;26.10;99.90
64501;DHT22;50874;24.150;-110.320;2022-09-30T11:21:45;26.00;99.90
64501;DHT22;50874;24.150;-110.320;2022-09-30T11:24:42;26.00;99.90
64501;DHT22;50874;24.150;-110.320;2022-09-30T11:41:09;25.50;99.90
64501;DHT22;50874;24.150;-110.320;2022-09-30T11:54:56;25.50;99.90
64501;DHT22;50874;24.150;-110.320;2022-09-30T11:58:01;25.50;99.90
64501;DHT22;50874;24.150;-110.320;2022-09-30T12:00:30;25.60;99.90
64501;DHT22;50874;24.150;-110.320;2022-09-30T12:05:47;25.50;99.90
64501;DHT22;50874;24.150;-110.320;2022-09-30T12:15:56;25.40;99.90
64501;DHT22;50874;24.150;-110.320;2022-09-30T12:20:56;25.30;99.90
64501;DHT22;50874;24.150;-110.320;2022-09-30T12:23:52;25.30;99.90
64501;DHT22;50874;24.150;-110.320;2022-09-30T12:26:20;25.30;99.90
64501;DHT22;50874;24.150;-110.320;2022-09-30T12:29:05;25.20;99.90
64501;DHT22;50874;24.150;-110.320;2022-09-30T12:35:06;25.10;99.90
64501;DHT22;50874;24.150;-110.320;2022-09-30T12:48:26;25.20;99.90
64501;DHT22;50874;24.150;-110.320;2022-09-30T12:50:55;25.10;99.90
64501;DHT22;50874;24.150;-110.320;2022-09-30T12:53:27;25.10;99.90
64501;DHT22;50874;24.150;-110.320;2022-09-30T12:56:00;25.10;99.90
64501;DHT22;50874;24.150;-110.320;2022-09-30T12:58:36;25.10;99.90
64501;DHT22;50874;24.150;-110.320;2022-09-30T13:01:29;25.00;99.90
64501;DHT22;50874;24.150;-110.320;2022-09-30T13:14:31;24.90;99.90
64501;DHT22;50874;24.150;-110.320;2022-09-30T13:19:47;24.90;99.90
64501;DHT22;50874;24.150;-110.320;2022-09-30T13:27:39;24.90;99.90
64501;DHT22;50874;24.150;-110.320;2022-09-30T13:40:46;24.90;99.90
64501;DHT22;50874;24.150;-110.320;2022-09-30T13:45:47;25.00;99.90
64501;DHT22;50874;24.150;-110.320;2022-09-30T13:48:34;25.00;99.90
64501;DHT22;50874;24.150;-110.320;2022-09-30T13:51:06;25.10;99.90
64501;DHT22;50874;24.150;-110.320;2022-09-30T13:53:40;25.20;99.90
64501;DHT22;50874;24.150;-110.320;2022-09-30T13:56:31;25.60;99.90
64501;DHT22;50874;24.150;-110.320;2022-09-30T14:04:34;27.20;99.90
64501;DHT22;50874;24.150;-110.320;2022-09-30T14:24:09;30.50;99.90
64501;DHT22;50874;24.150;-110.320;2022-09-30T14:27:05;30.80;99.90
64501;DHT22;50874;24.150;-110.320;2022-09-30T14:32:56;31.50;99.90
64501;DHT22;50874;24.150;-110.320;2022-09-30T14:35:26;31.70;99.90
64501;DHT22;50874;24.150;-110.320;2022-09-30T14:40:29;32.10;99.90
64501;DHT22;50874;24.150;-110.320;2022-09-30T14:43:11;32.10;99.90
64501;DHT22;50874;24.150;-110.320;2022-09-30T14:45:43;32.20;99.90
64501;DHT22;50874;24.150;-110.320;2022-09-30T14:48:36;32.30;99.90
64501;DHT22;50874;24.150;-110.320;2022-09-30T14:51:06;32.50;99.90
64501;DHT22;50874;24.150;-110.320;2022-09-30T14:53:39;32.60;99.90
64501;DHT22;50874;24.150;-110.320;2022-09-30T14:56:20;32.70;99.90
64501;DHT22;50874;24.150;-110.320;2022-09-30T14:58:48;32.30;99.90
64501;DHT22;50874;24.150;-110.320;2022-09-30T15:01:19;32.30;99.90
64501;DHT22;50874;24.150;-110.320;2022-09-30T15:03:55;32.50;99.90
64501;DHT22;50874;24.150;-110.320;2022-09-30T15:06:29;32.80;99.90
64501;DHT22;50874;24.150;-110.320;2022-09-30T15:09:01;32.90;99.90
64501;DHT22;50874;24.150;-110.320;2022-09-30T15:11:28;33.30;99.90
64501;DHT22;50874;24.150;-110.320;2022-09-30T15:14:03;33.40;99.90
64501;DHT22;50874;24.150;-110.320;2022-09-30T15:16:32;33.60;99.90
64501;DHT22;50874;24.150;-110.320;2022-09-30T15:18:59;33.80;99.90
64501;DHT22;50874;24.150;-110.320;2022-09-30T15:21:29;34.00;99.90
64501;DHT22;50874;24.150;-110.320;2022-09-30T15:23:57;34.10;99.90
64501;DHT22;50874;24.150;-110.320;2022-09-30T15:26:27;34.10;99.90
64501;DHT22;50874;24.150;-110.320;2022-09-30T15:28:54;34.40;99.90
64501;DHT22;50874;24.150;-110.320;2022-09-30T15:31:25;34.80;99.90
64501;DHT22;50874;24.150;-110.320;2022-09-30T15:34:21;35.00;99.70
64501;DHT22;50874;24.150;-110.320;2022-09-30T15:37:00;35.60;99.30
64501;DHT22;50874;24.150;-110.320;2022-09-30T15:39:39;35.30;98.30
64501;DHT22;50874;24.150;-110.320;2022-09-30T15:42:33;35.60;98.70
64501;DHT22;50874;24.150;-110.320;2022-09-30T15:47:58;36.40;97.50
64501;DHT22;50874;24.150;-110.320;2022-09-30T15:50:43;36.50;97.10
64501;DHT22;50874;24.150;-110.320;2022-09-30T15:54:23;36.40;96.90
64501;DHT22;50874;24.150;-110.320;2022-09-30T15:56:24;36.50;97.00
64501;DHT22;50874;24.150;-110.320;2022-09-30T15:59:05;36.90;96.30
64501;DHT22;50874;24.150;-110.320;2022-09-30T16:01:48;37.00;95.80
64501;DHT22;50874;24.150;-110.320;2022-09-30T16:11:45;37.40;94.80
64501;DHT22;50874;24.150;-110.320;2022-09-30T16:14:25;37.80;94.40
64501;DHT22;50874;24.150;-110.320;2022-09-30T16:16:54;38.00;93.80
64501;DHT22;50874;24.150;-110.320;2022-09-30T16:19:21;38.10;93.70
64501;DHT22;50874;24.150;-110.320;2022-09-30T16:21:50;38.30;93.10
64501;DHT22;50874;24.150;-110.320;2022-09-30T16:27:39;38.80;92.60
64501;DHT22;50874;24.150;-110.320;2022-09-30T16:29:47;39.00;92.20
64501;DHT22;50874;24.150;-110.320;2022-09-30T16:32:13;39.40;91.50
64501;DHT22;50874;24.150;-110.320;2022-09-30T16:34:40;39.40;91.80
64501;DHT22;50874;24.150;-110.320;2022-09-30T16:37:13;39.80;91.20
64501;DHT22;50874;24.150;-110.320;2022-09-30T16:39:42;39.80;91.00
64501;DHT22;50874;24.150;-110.320;2022-09-30T16:42:13;39.90;90.80
64501;DHT22;50874;24.150;-110.320;2022-09-30T16:44:40;40.30;91.00
64501;DHT22;50874;24.150;-110.320;2022-09-30T16:47:14;40.50;90.20
64501;DHT22;50874;24.150;-110.320;2022-09-30T16:49:41;40.70;89.00
64501;DHT22;50874;24.150;-110.320;2022-09-30T16:52:11;41.00;89.10
64501;DHT22;50874;24.150;-110.320;2022-09-30T16:54:42;41.30;88.10
64501;DHT22;50874;24.150;-110.320;2022-09-30T16:57:12;41.40;88.00
64501;DHT22;50874;24.150;-110.320;2022-09-30T16:59:39;41.30;86.00
64501;DHT22;50874;24.150;-110.320;2022-09-30T17:02:09;41.20;86.40
64501;DHT22;50874;24.150;-110.320;2022-09-30T17:04:37;41.30;86.80
64501;DHT22;50874;24.150;-110.320;2022-09-30T17:07:04;41.50;86.10
64501;DHT22;50874;24.150;-110.320;2022-09-30T17:09:30;41.80;85.40
64501;DHT22;50874;24.150;-110.320;2022-09-30T17:11:57;42.10;85.30
64501;DHT22;50874;24.150;-110.320;2022-09-30T17:14:26;42.10;85.60
64501;DHT22;50874;24.150;-110.320;2022-09-30T17:16:52;42.00;85.50
64501;DHT22;50874;24.150;-110.320;2022-09-30T17:19:19;42.10;84.10
64501;DHT22;50874;24.150;-110.320;2022-09-30T17:21:45;42.00;85.70
64501;DHT22;50874;24.150;-110.320;2022-09-30T17:24:12;41.60;85.20
64501;DHT22;50874;24.150;-110.320;2022-09-30T17:26:38;41.70;84.90
64501;DHT22;50874;24.150;-110.320;2022-09-30T17:29:05;42.20;86.00
64501;DHT22;50874;24.150;-110.320;2022-09-30T17:31:31;42.30;83.50
64501;DHT22;50874;24.150;-110.320;2022-09-30T17:33:58;41.90;84.70
64501;DHT22;50874;24.150;-110.320;2022-09-30T17:36:24;41.90;84.50
64501;DHT22;50874;24.150;-110.320;2022-09-30T17:38:52;42.10;84.10
64501;DHT22;50874;24.150;-110.320;2022-09-30T17:41:19;42.00;83.30
64501;DHT22;50874;24.150;-110.320;2022-09-30T17:44:04;42.30;83.60
64501;DHT22;50874;24.150;-110.320;2022-09-30T17:46:43;42.60;83.10
64501;DHT22;50874;24.150;-110.320;2022-09-30T17:49:13;42.80;81.80
64501;DHT22;50874;24.150;-110.320;2022-09-30T17:51:42;42.60;82.70
64501;DHT22;50874;24.150;-110.320;2022-09-30T17:54:12;42.40;82.70
64501;DHT22;50874;24.150;-110.320;2022-09-30T17:56:38;42.50;82.40
64501;DHT22;50874;24.150;-110.320;2022-09-30T17:59:08;41.60;83.30
64501;DHT22;50874;24.150;-110.320;2022-09-30T18:01:34;42.00;83.40
64501;DHT22;50874;24.150;-110.320;2022-09-30T18:04:01;42.20;81.50
64501;DHT22;50874;24.150;-110.320;2022-09-30T18:06:27;42.30;79.60
64501;DHT22;50874;24.150;-110.320;2022-09-30T18:08:54;42.30;79.90
64501;DHT22;50874;24.150;-110.320;2022-09-30T18:11:25;42.50;79.20
64501;DHT22;50874;24.150;-110.320;2022-09-30T18:13:57;42.60;80.20
64501;DHT22;50874;24.150;-110.320;2022-09-30T18:16:29;42.60;79.10
64501;DHT22;50874;24.150;-110.320;2022-09-30T18:18:57;42.30;79.80
64501;DHT22;50874;24.150;-110.320;2022-09-30T18:21:24;42.30;79.30
64501;DHT22;50874;24.150;-110.320;2022-09-30T18:23:52;41.90;79.80
64501;DHT22;50874;24.150;-110.320;2022-09-30T18:26:19;42.00;79.30
64501;DHT22;50874;24.150;-110.320;2022-09-30T18:28:46;41.70;80.20
64501;DHT22;50874;24.150;-110.320;2022-09-30T18:31:15;41.70;79.30
64501;DHT22;50874;24.150;-110.320;2022-09-30T18:33:54;42.10;79.10
64501;DHT22;50874;24.150;-110.320;2022-09-30T18:36:21;42.10;78.50
64501;DHT22;50874;24.150;-110.320;2022-09-30T18:38:47;41.40;80.00
64501;DHT22;50874;24.150;-110.320;2022-09-30T18:41:14;41.70;80.80
64501;DHT22;50874;24.150;-110.320;2022-09-30T18:43:41;42.10;79.00
64501;DHT22;50874;24.150;-110.320;2022-09-30T18:46:11;42.10;78.20
64501;DHT22;50874;24.150;-110.320;2022-09-30T18:48:39;42.20;78.70
64501;DHT22;50874;24.150;-110.320;2022-09-30T18:51:06;41.40;76.00
64501;DHT22;50874;24.150;-110.320;2022-09-30T18:53:34;41.80;73.60
64501;DHT22;50874;24.150;-110.320;2022-09-30T18:56:01;42.00;74.60
64501;DHT22;50874;24.150;-110.320;2022-09-30T18:58:28;41.80;74.20
64501;DHT22;50874;24.150;-110.320;2022-09-30T19:01:00;42.10;75.20
64501;DHT22;50874;24.150;-110.320;2022-09-30T19:03:31;42.00;75.10
64501;DHT22;50874;24.150;-110.320;2022-09-30T19:05:58;42.00;74.80
64501;DHT22;50874;24.150;-110.320;2022-09-30T19:08:26;42.40;75.80
64501;DHT22;50874;24.150;-110.320;2022-09-30T19:10:53;42.20;75.50
64501;DHT22;50874;24.150;-110.320;2022-09-30T19:13:20;41.30;74.50
64501;DHT22;50874;24.150;-110.320;2022-09-30T19:15:48;41.80;74.00
64501;DHT22;50874;24.150;-110.320;2022-09-30T19:18:15;41.40;75.20
64501;DHT22;50874;24.150;-110.320;2022-09-30T19:20:41;41.80;74.90
64501;DHT22;50874;24.150;-110.320;2022-09-30T19:23:08;42.00;75.30